Time;durP1;ratioP1;P1;durP2;ratioP2;P2;SDS_P1;SDS_P2;PMS_P1;PMS_P2;Temp;Humidity;BMP_temperature;BMP_pressure;BME280_temperature;BME280_humidity;BME280_pressure;Samples;Min_cycle;Max_cycle;Signal;HPM_P1;HPM_P2
2022/07/03 00:01:26;;;;;;;1.70;1.60;;;24.30;54.70;;;;;;5010103;28;20698;-61
2022/07/03 00:03:55;;;;;;;1.73;1.35;;;24.30;54.60;;;;;;5008358;28;20041;-62
2022/07/03 00:06:21;;;;;;;1.60;1.50;;;24.30;54.60;;;;;;5008304;28;20115;-62
2022/07/03 00:08:47;;;;;;;2.78;1.40;;;24.30;54.60;;;;;;5008148;28;20040;-61
2022/07/03 00:11:13;;;;;;;1.40;1.30;;;24.30;54.60;;;;;;5009040;28;20045;-61
2022/07/03 00:13:39;;;;;;;2.53;1.63;;;24.20;54.50;;;;;;5010543;28;20087;-61
2022/07/03 00:16:04;;;;;;;1.30;1.20;;;24.30;54.50;;;;;;5010150;28;20116;-61
2022/07/03 00:18:30;;;;;;;1.48;1.38;;;24.20;54.50;;;;;;5011071;28;20883;-62
2022/07/03 00:21:05;;;;;;;2.25;1.50;;;24.30;54.50;;;;;;5007086;28;20081;-61
2022/07/03 00:23:44;;;;;;;1.70;1.30;;;24.30;54.50;;;;;;5008061;28;20060;-61
2022/07/03 00:26:12;;;;;;;2.25;1.52;;;24.30;54.50;;;;;;5010760;28;20131;-62
2022/07/03 00:28:40;;;;;;;1.80;1.67;;;24.20;54.40;;;;;;5009729;28;20575;-61
2022/07/03 00:31:07;;;;;;;1.60;1.50;;;24.20;54.50;;;;;;5008831;28;20359;-61
2022/07/03 00:33:35;;;;;;;2.70;1.67;;;24.20;54.40;;;;;;5007780;28;20052;-61
2022/07/03 00:36:02;;;;;;;1.85;1.75;;;24.20;54.40;;;;;;5011099;28;20037;-61
2022/07/03 00:38:28;;;;;;;2.80;1.45;;;24.20;54.40;;;;;;5008838;28;20443;-61
2022/07/03 00:40:54;;;;;;;1.80;1.65;;;24.20;54.30;;;;;;5011758;28;20128;-61
2022/07/03 00:43:20;;;;;;;1.90;1.55;;;24.20;54.30;;;;;;5013566;28;20042;-61
2022/07/03 00:45:50;;;;;;;1.42;1.17;;;24.20;54.30;;;;;;5011756;28;20611;-63
2022/07/03 00:48:18;;;;;;;2.25;1.60;;;24.20;54.30;;;;;;5008079;28;20482;-61
2022/07/03 00:50:51;;;;;;;1.50;1.40;;;24.20;54.30;;;;;;5012719;28;20052;-61
2022/07/03 00:53:28;;;;;;;1.70;1.60;;;24.20;54.20;;;;;;5010628;28;20161;-61
2022/07/03 00:55:55;;;;;;;1.73;1.63;;;24.20;54.20;;;;;;5012666;28;20103;-61
2022/07/03 00:58:22;;;;;;;1.65;1.55;;;24.20;54.20;;;;;;5012138;28;20491;-61
2022/07/03 01:00:51;;;;;;;2.60;1.50;;;24.20;54.20;;;;;;5009996;28;20077;-61
2022/07/03 01:03:20;;;;;;;3.27;1.90;;;24.20;54.20;;;;;;5013527;28;20037;-61
2022/07/03 01:05:51;;;;;;;1.70;1.33;;;24.20;54.20;;;;;;5011103;28;20292;-61
2022/07/03 01:08:45;;;;;;;1.70;1.60;;;24.20;54.10;;;;;;5011205;28;20125;-62
2022/07/03 01:11:25;;;;;;;1.85;1.65;;;24.20;54.10;;;;;;5011213;28;20589;-61
2022/07/03 01:14:08;;;;;;;2.05;1.85;;;24.20;54.10;;;;;;5008307;28;20033;-61
2022/07/03 01:16:40;;;;;;;1.70;1.52;;;24.10;54.10;;;;;;5011989;28;20087;-61
2022/07/03 01:19:30;;;;;;;2.67;1.70;;;24.20;54.20;;;;;;5011639;28;20071;-62
2022/07/03 01:22:13;;;;;;;2.20;1.52;;;24.20;54.10;;;;;;5008330;28;20042;-60
2022/07/03 01:25:07;;;;;;;2.13;1.70;;;24.10;54.00;;;;;;5010912;28;20042;-61
2022/07/03 01:27:47;;;;;;;2.70;1.77;;;24.20;54.10;;;;;;5012694;28;20054;-62
2022/07/03 01:30:13;;;;;;;1.67;1.40;;;24.20;54.10;;;;;;5010930;28;20058;-62
2022/07/03 01:32:51;;;;;;;2.60;1.80;;;24.10;54.10;;;;;;4997576;28;20045;-61
2022/07/03 01:35:31;;;;;;;3.40;1.70;;;24.10;54.00;;;;;;5010778;28;20038;-60
2022/07/03 01:38:00;;;;;;;2.10;1.73;;;24.20;54.10;;;;;;5009809;28;20398;-61
2022/07/03 01:40:27;;;;;;;2.03;1.83;;;24.10;54.10;;;;;;5010006;28;20076;-61
2022/07/03 01:42:54;;;;;;;1.50;1.40;;;24.10;54.10;;;;;;5010982;28;20045;-60
2022/07/03 01:45:23;;;;;;;2.35;1.85;;;24.10;54.10;;;;;;5011362;28;20129;-61
2022/07/03 01:47:50;;;;;;;1.77;1.55;;;24.10;54.00;;;;;;5013441;28;20132;-61
2022/07/03 01:50:16;;;;;;;1.70;1.60;;;24.10;54.00;;;;;;5009959;28;20042;-62
2022/07/03 01:52:45;;;;;;;2.13;1.80;;;24.10;54.00;;;;;;5012931;28;20048;-61
2022/07/03 01:55:12;;;;;;;1.65;1.55;;;24.10;54.00;;;;;;5010096;28;20034;-61
2022/07/03 01:57:44;;;;;;;1.63;1.42;;;24.10;54.00;;;;;;5011219;28;20076;-62
2022/07/03 02:00:12;;;;;;;1.65;1.55;;;24.10;54.00;;;;;;5011350;28;20038;-61
2022/07/03 02:03:02;;;;;;;2.13;1.85;;;24.10;54.00;;;;;;5009462;28;20070;-62
2022/07/03 02:05:35;;;;;;;2.03;1.63;;;24.10;54.00;;;;;;5008799;28;20054;-62
2022/07/03 02:08:18;;;;;;;2.03;1.80;;;24.10;54.00;;;;;;5010570;28;20119;-61
2022/07/03 02:10:52;;;;;;;1.92;1.70;;;24.00;53.90;;;;;;5012787;28;20091;-61
2022/07/03 02:13:28;;;;;;;1.83;1.70;;;24.10;54.10;;;;;;5009427;28;20090;-61
2022/07/03 02:15:57;;;;;;;2.75;1.63;;;24.10;54.00;;;;;;5011892;28;20160;-61
2022/07/03 02:18:30;;;;;;;2.25;1.90;;;24.00;53.90;;;;;;5008244;28;20145;-62
2022/07/03 02:21:18;;;;;;;2.65;1.80;;;24.10;54.00;;;;;;5008629;28;20076;-61
2022/07/03 02:24:19;;;;;;;2.22;1.70;;;24.10;54.00;;;;;;5008123;28;20041;-61
2022/07/03 02:26:54;;;;;;;2.20;1.67;;;24.10;54.00;;;;;;5007756;28;20394;-62
2022/07/03 02:29:25;;;;;;;2.00;1.73;;;24.00;54.00;;;;;;5009415;28;20041;-61
2022/07/03 02:31:58;;;;;;;2.42;1.67;;;24.00;54.00;;;;;;5007908;28;20570;-61
2022/07/03 02:34:24;;;;;;;1.83;1.63;;;24.10;54.70;;;;;;5014161;28;20053;-61
2022/07/03 02:36:55;;;;;;;2.28;1.58;;;24.00;53.90;;;;;;5008616;28;20084;-63
2022/07/03 02:39:50;;;;;;;;;;;24.00;53.90;;;;;;5009545;28;20475;-61
2022/07/03 02:42:49;;;;;;;2.08;1.85;;;24.00;53.80;;;;;;5000703;28;20015;-60
2022/07/03 02:45:14;;;;;;;1.70;1.60;;;24.00;54.00;;;;;;5011729;28;20081;-62
2022/07/03 02:47:46;;;;;;;1.67;1.58;;;24.00;54.00;;;;;;5012621;28;20764;-60
2022/07/03 02:50:16;;;;;;;1.92;1.55;;;24.00;54.00;;;;;;5010880;28;20050;-62
2022/07/03 02:52:47;;;;;;;1.50;1.40;;;24.00;53.90;;;;;;5010159;28;20257;-61
2022/07/03 02:55:42;;;;;;;1.70;1.50;;;24.00;53.90;;;;;;5009796;28;20540;-61
2022/07/03 02:58:56;;;;;;;2.55;1.70;;;24.00;53.90;;;;;;5009223;28;20040;-62
2022/07/03 03:01:24;;;;;;;1.92;1.40;;;24.00;53.80;;;;;;4969752;28;20045;-62
2022/07/03 03:04:13;;;;;;;2.00;1.48;;;24.00;54.60;;;;;;5006936;28;20038;-60
2022/07/03 03:06:47;;;;;;;2.00;1.58;;;24.00;53.20;;;;;;5009751;28;20046;-61
2022/07/03 03:09:21;;;;;;;1.88;1.60;;;24.00;53.90;;;;;;5004722;28;20090;-61
2022/07/03 03:11:48;;;;;;;2.03;1.48;;;24.00;53.80;;;;;;5009791;28;20042;-61
2022/07/03 03:14:19;;;;;;;1.60;1.50;;;24.00;53.90;;;;;;5009914;28;20041;-61
2022/07/03 03:16:51;;;;;;;2.53;1.52;;;24.00;53.80;;;;;;5012192;28;20060;-62
2022/07/03 03:19:21;;;;;;;1.58;1.35;;;24.00;53.90;;;;;;5009484;28;20065;-61
2022/07/03 03:22:30;;;;;;;1.30;1.20;;;24.00;53.80;;;;;;5010442;28;20054;-61
2022/07/03 03:24:56;;;;;;;1.90;1.80;;;24.00;53.70;;;;;;5000911;28;20417;-61
2022/07/03 03:27:22;;;;;;;1.63;1.48;;;24.00;53.80;;;;;;4993055;28;20095;-61
2022/07/03 03:29:48;;;;;;;1.85;1.63;;;23.90;53.70;;;;;;5007781;28;20125;-62
2022/07/03 03:32:16;;;;;;;1.38;1.27;;;24.00;53.70;;;;;;5009536;28;20088;-61
2022/07/03 03:34:45;;;;;;;1.67;1.52;;;24.00;53.70;;;;;;5009823;28;20034;-63
2022/07/03 03:37:11;;;;;;;2.67;1.52;;;23.90;53.60;;;;;;5009131;28;20494;-63
2022/07/03 03:39:37;;;;;;;1.98;1.30;;;24.00;53.60;;;;;;5006107;28;20050;-61
2022/07/03 03:42:04;;;;;;;2.25;1.40;;;24.00;53.60;;;;;;5007325;28;20136;-61
2022/07/03 03:44:29;;;;;;;1.98;1.60;;;24.00;53.70;;;;;;5009650;28;20049;-61
2022/07/03 03:46:56;;;;;;;2.75;1.30;;;23.90;53.60;;;;;;5009677;28;20045;-61
2022/07/03 03:49:22;;;;;;;1.88;1.20;;;24.00;53.60;;;;;;5011153;28;20127;-64
2022/07/03 03:51:47;;;;;;;2.30;1.63;;;24.00;53.60;;;;;;5009003;28;20670;-62
2022/07/03 03:54:13;;;;;;;1.92;1.42;;;24.00;53.60;;;;;;5009843;28;20580;-61
2022/07/03 03:56:39;;;;;;;1.50;1.40;;;23.90;53.60;;;;;;5006163;28;20077;-60
2022/07/03 03:59:04;;;;;;;2.35;1.38;;;23.90;53.60;;;;;;5008462;28;20482;-61
2022/07/03 04:01:30;;;;;;;1.98;1.20;;;24.00;53.70;;;;;;5008113;28;20037;-60
2022/07/03 04:03:59;;;;;;;2.25;1.48;;;23.90;53.70;;;;;;5008816;28;20614;-61
2022/07/03 04:06:25;;;;;;;1.40;1.30;;;23.90;53.70;;;;;;4992627;28;20128;-61
2022/07/03 04:08:51;;;;;;;1.40;1.20;;;24.00;53.80;;;;;;5009438;28;20395;-61
2022/07/03 04:11:17;;;;;;;1.73;1.38;;;23.90;53.70;;;;;;5003270;28;20061;-61
2022/07/03 04:13:43;;;;;;;1.48;1.20;;;23.90;53.80;;;;;;5008510;28;20401;-63
2022/07/03 04:16:08;;;;;;;1.50;1.40;;;23.90;53.80;;;;;;5015292;28;20050;-62
2022/07/03 04:18:34;;;;;;;1.85;1.17;;;23.90;53.80;;;;;;5014090;28;20037;-62
2022/07/03 04:21:00;;;;;;;1.60;1.35;;;24.00;53.80;;;;;;5011029;28;20091;-62
2022/07/03 04:23:26;;;;;;;2.67;1.33;;;24.00;53.90;;;;;;5014410;28;20131;-61
2022/07/03 04:25:51;;;;;;;1.55;1.35;;;24.00;53.90;;;;;;5014714;28;20030;-61
2022/07/03 04:28:17;;;;;;;1.40;1.30;;;23.90;53.80;;;;;;5010937;28;20872;-61
2022/07/03 04:30:42;;;;;;;1.50;1.40;;;23.90;53.90;;;;;;5013642;28;20698;-61
2022/07/03 04:33:08;;;;;;;1.48;1.38;;;23.90;53.90;;;;;;5013107;28;20052;-61
2022/07/03 04:35:34;;;;;;;1.88;1.40;;;23.90;53.90;;;;;;5013048;28;20074;-63
2022/07/03 04:37:59;;;;;;;2.00;1.42;;;23.90;53.90;;;;;;5012767;28;20033;-63
2022/07/03 04:40:25;;;;;;;3.53;1.40;;;23.90;54.30;;;;;;5011714;28;20400;-61
2022/07/03 04:42:51;;;;;;;3.53;1.75;;;23.90;54.80;;;;;;5010021;28;20456;-61
2022/07/03 04:45:16;;;;;;;1.88;1.40;;;23.90;54.90;;;;;;5011858;28;20053;-61
2022/07/03 04:47:42;;;;;;;2.63;1.60;;;24.00;55.00;;;;;;5013792;28;20060;-61
2022/07/03 04:50:08;;;;;;;2.90;1.00;;;24.00;55.00;;;;;;5006758;28;20041;-61
2022/07/03 04:52:33;;;;;;;1.50;1.35;;;24.00;55.00;;;;;;5009321;28;20628;-61
2022/07/03 04:54:59;;;;;;;2.65;1.30;;;24.00;54.80;;;;;;5009493;28;20049;-60
2022/07/03 04:57:25;;;;;;;2.88;1.15;;;24.00;54.80;;;;;;5011433;28;20041;-60
2022/07/03 04:59:50;;;;;;;1.83;1.20;;;24.00;54.80;;;;;;5007625;28;20041;-61
2022/07/03 05:02:16;;;;;;;1.75;1.42;;;24.00;54.80;;;;;;5007304;28;20513;-60
2022/07/03 05:04:42;;;;;;;3.50;1.35;;;24.00;54.80;;;;;;5010668;28;20132;-62
2022/07/03 05:07:07;;;;;;;2.72;1.40;;;24.00;55.30;;;;;;5012535;28;20080;-61
2022/07/03 05:09:33;;;;;;;3.05;1.48;;;24.00;55.50;;;;;;5011213;28;20041;-60
2022/07/03 05:11:58;;;;;;;1.75;1.30;;;24.00;55.50;;;;;;5010609;28;20490;-60
2022/07/03 05:14:24;;;;;;;2.40;1.25;;;24.00;55.60;;;;;;5006250;28;20033;-63
2022/07/03 05:16:50;;;;;;;2.63;1.40;;;24.00;55.80;;;;;;5006016;28;20049;-60
2022/07/03 05:19:15;;;;;;;2.65;1.30;;;24.00;55.70;;;;;;5010790;28;20107;-61
2022/07/03 05:21:41;;;;;;;8.13;2.22;;;24.00;55.80;;;;;;5010997;28;20036;-61
2022/07/03 05:24:07;;;;;;;2.92;1.25;;;24.00;55.80;;;;;;5011992;28;20417;-61
2022/07/03 05:26:32;;;;;;;3.15;1.75;;;24.00;55.90;;;;;;5011719;28;20568;-60
2022/07/03 05:28:58;;;;;;;1.95;1.40;;;24.00;55.90;;;;;;5007578;28;20595;-61
2022/07/03 05:31:24;;;;;;;3.03;1.40;;;24.10;56.00;;;;;;5006567;28;20049;-62
2022/07/03 05:33:49;;;;;;;1.65;1.50;;;24.00;55.90;;;;;;5009973;28;20053;-60
2022/07/03 05:36:15;;;;;;;3.20;1.30;;;24.00;55.90;;;;;;5005708;28;20416;-61
2022/07/03 05:41:25;;;;;;;1.88;1.30;;;24.10;55.90;;;;;;5008012;28;20056;-60
2022/07/03 05:43:50;;;;;;;2.42;1.60;;;24.00;55.90;;;;;;5010213;28;20123;-61
2022/07/03 05:46:16;;;;;;;2.65;1.60;;;24.00;55.90;;;;;;5008642;28;20057;-61
2022/07/03 05:48:42;;;;;;;1.60;1.50;;;24.00;55.90;;;;;;5011840;28;20552;-60
2022/07/03 05:51:07;;;;;;;2.78;1.40;;;24.00;55.80;;;;;;5006821;28;20042;-61
2022/07/03 05:53:33;;;;;;;1.98;1.45;;;24.00;55.70;;;;;;5009290;28;20042;-62
2022/07/03 05:55:59;;;;;;;1.95;1.35;;;24.00;55.60;;;;;;5009890;28;20060;-60
2022/07/03 05:58:24;;;;;;;3.33;1.30;;;24.10;55.70;;;;;;5010276;28;20116;-60
2022/07/03 06:00:50;;;;;;;2.60;1.25;;;24.00;55.60;;;;;;5008839;28;20066;-60
2022/07/03 06:03:16;;;;;;;2.03;1.40;;;24.00;55.60;;;;;;5005202;28;20465;-61
2022/07/03 06:05:41;;;;;;;2.25;1.33;;;24.00;55.80;;;;;;5012019;28;20044;-63
2022/07/03 06:08:07;;;;;;;1.48;1.30;;;24.00;55.90;;;;;;5011088;28;20061;-61
2022/07/03 06:10:33;;;;;;;2.53;1.38;;;24.00;55.90;;;;;;5008084;28;20045;-61
2022/07/03 06:12:59;;;;;;;4.10;1.40;;;24.00;55.90;;;;;;5009876;28;20393;-63
2022/07/03 06:15:25;;;;;;;3.38;1.30;;;24.10;56.00;;;;;;5010470;28;20030;-61
2022/07/03 06:17:51;;;;;;;2.75;1.40;;;24.00;55.90;;;;;;5011621;28;20449;-63
2022/07/03 06:20:18;;;;;;;1.20;1.10;;;24.00;56.00;;;;;;5011500;28;20037;-61
2022/07/03 06:22:44;;;;;;;1.23;1.10;;;24.10;56.00;;;;;;5011252;28;20049;-61
2022/07/03 06:25:10;;;;;;;1.38;1.27;;;24.00;56.00;;;;;;5008818;28;20053;-60
2022/07/03 06:27:35;;;;;;;1.85;1.20;;;24.10;56.10;;;;;;5009853;28;20564;-61
2022/07/03 06:30:02;;;;;;;1.48;1.20;;;24.10;56.10;;;;;;5012523;28;20037;-60
2022/07/03 06:32:28;;;;;;;3.03;1.50;;;24.10;56.00;;;;;;5008817;28;20548;-60
2022/07/03 06:34:53;;;;;;;2.03;1.30;;;24.00;55.70;;;;;;5011414;28;20042;-60
2022/07/03 06:37:20;;;;;;;2.55;1.00;;;24.00;55.60;;;;;;5003979;28;20137;-60
2022/07/03 06:39:46;;;;;;;1.58;1.20;;;24.00;55.60;;;;;;5003884;28;20099;-61
2022/07/03 06:42:11;;;;;;;1.92;1.30;;;24.00;55.60;;;;;;5009990;28;20505;-59
2022/07/03 06:44:37;;;;;;;1.58;1.25;;;24.00;55.50;;;;;;5010233;28;20048;-59
2022/07/03 06:47:03;;;;;;;1.67;1.20;;;24.00;55.50;;;;;;5005037;28;20057;-61
2022/07/03 06:49:31;;;;;;;2.05;1.20;;;24.00;55.50;;;;;;5008639;28;20057;-60
2022/07/03 06:51:57;;;;;;;1.25;1.10;;;24.00;55.50;;;;;;5009915;28;20045;-59
2022/07/03 06:54:22;;;;;;;1.67;1.13;;;24.10;55.50;;;;;;5009656;28;20099;-60
2022/07/03 06:56:48;;;;;;;2.85;1.00;;;24.00;55.40;;;;;;5009056;28;20128;-60
2022/07/03 06:59:14;;;;;;;1.67;0.82;;;24.00;55.40;;;;;;5003186;28;20061;-64
2022/07/03 07:01:39;;;;;;;1.20;1.10;;;24.00;55.40;;;;;;5009557;28;20116;-59
2022/07/03 07:04:05;;;;;;;1.90;1.30;;;24.00;55.40;;;;;;5010285;28;20072;-59
2022/07/03 07:06:31;;;;;;;2.58;1.02;;;24.00;55.40;;;;;;5007399;28;20045;-60
2022/07/03 07:08:56;;;;;;;1.13;1.02;;;24.00;55.40;;;;;;5008927;28;20041;-60
2022/07/03 07:11:22;;;;;;;2.00;0.80;;;24.00;55.60;;;;;;5010504;28;20044;-60
2022/07/03 07:13:47;;;;;;;2.42;1.00;;;24.00;55.70;;;;;;5010419;28;20038;-60
2022/07/03 07:16:13;;;;;;;2.40;1.02;;;24.10;55.90;;;;;;5009819;28;20073;-60
2022/07/03 07:18:43;;;;;;;2.65;1.30;;;24.10;56.00;;;;;;5009584;28;20451;-61
2022/07/03 07:21:09;;;;;;;1.40;1.10;;;24.10;56.00;;;;;;5008080;28;20037;-60
2022/07/03 07:23:36;;;;;;;3.53;1.33;;;24.10;56.00;;;;;;5008929;28;20342;-60
2022/07/03 07:26:02;;;;;;;3.30;1.00;;;24.10;56.00;;;;;;5007127;28;20034;-61
2022/07/03 07:28:28;;;;;;;1.75;1.10;;;24.10;56.10;;;;;;5007324;28;20113;-61
2022/07/03 07:30:55;;;;;;;2.70;1.30;;;24.10;56.30;;;;;;5007679;28;20053;-60
2022/07/03 07:33:20;;;;;;;3.67;1.05;;;24.10;56.30;;;;;;5007766;28;20040;-61
2022/07/03 07:35:46;;;;;;;1.30;1.20;;;24.10;56.30;;;;;;5007065;28;20030;-61
2022/07/03 07:38:12;;;;;;;3.83;1.10;;;24.10;56.30;;;;;;5008469;28;20030;-61
2022/07/03 07:40:37;;;;;;;2.78;1.15;;;24.10;56.20;;;;;;5008080;28;20052;-62
2022/07/03 07:43:03;;;;;;;1.25;0.90;;;24.10;56.20;;;;;;5008370;28;20065;-61
2022/07/03 07:45:29;;;;;;;3.00;1.10;;;24.10;56.20;;;;;;5010160;28;20706;-60
2022/07/03 07:47:54;;;;;;;2.40;1.10;;;24.10;56.20;;;;;;5005082;28;20521;-61
2022/07/03 07:50:20;;;;;;;1.50;0.85;;;24.10;56.20;;;;;;5007050;28;20436;-61
2022/07/03 07:52:46;;;;;;;3.13;1.10;;;24.20;56.10;;;;;;5009290;28;20045;-61
2022/07/03 07:55:12;;;;;;;7.80;1.10;;;24.10;56.10;;;;;;5006399;28;20045;-62
2022/07/03 07:57:39;;;;;;;5.90;1.20;;;24.20;56.30;;;;;;5008938;28;20471;-61
2022/07/03 08:00:07;;;;;;;3.25;1.30;;;24.20;56.40;;;;;;5006229;28;20045;-61
2022/07/03 08:05:35;;;;;;;3.47;1.20;;;24.20;56.50;;;;;;5008149;28;20063;-64
2022/07/03 08:08:11;;;;;;;2.88;1.33;;;24.20;56.30;;;;;;5009502;28;20053;-62
2022/07/03 08:10:49;;;;;;;2.85;1.20;;;24.20;56.30;;;;;;5006722;28;20935;-60
2022/07/03 08:13:16;;;;;;;5.22;1.20;;;24.10;56.40;;;;;;5009090;28;20121;-60
2022/07/03 08:15:43;;;;;;;4.30;1.30;;;24.10;56.40;;;;;;5006537;28;20076;-61
2022/07/03 08:18:09;;;;;;;7.07;1.30;;;24.10;56.40;;;;;;5004167;28;20029;-61
2022/07/03 08:20:36;;;;;;;6.05;1.42;;;24.10;56.60;;;;;;5008096;28;20639;-61
2022/07/03 08:23:02;;;;;;;4.45;1.10;;;24.10;56.70;;;;;;5007644;28;20128;-61
2022/07/03 08:25:29;;;;;;;4.55;1.30;;;24.10;56.80;;;;;;5007382;28;20084;-62
2022/07/03 08:27:56;;;;;;;5.90;0.98;;;24.10;56.80;;;;;;5008746;28;20041;-61
2022/07/03 08:30:21;;;;;;;6.03;1.50;;;24.10;56.80;;;;;;5007405;28;20467;-63
2022/07/03 08:32:49;;;;;;;6.97;1.77;;;24.10;56.80;;;;;;5006376;28;20045;-61
2022/07/03 08:35:16;;;;;;;3.42;1.05;;;24.20;56.80;;;;;;5007608;28;20057;-59
2022/07/03 08:37:43;;;;;;;5.20;1.30;;;24.10;56.80;;;;;;5003545;28;20129;-60
2022/07/03 08:40:10;;;;;;;5.65;1.13;;;24.10;56.90;;;;;;5007836;28;20038;-60
2022/07/03 08:42:45;;;;;;;5.35;1.10;;;24.10;56.90;;;;;;5003643;28;20878;-59
2022/07/03 08:45:15;;;;;;;3.63;0.82;;;24.10;57.00;;;;;;5003344;28;20132;-60
2022/07/03 08:47:44;;;;;;;;;;;24.20;56.90;;;;;;5005590;28;20434;-60
2022/07/03 08:50:14;;;;;;;2.28;1.00;;;24.10;56.80;;;;;;5008463;28;19921;-60
2022/07/03 08:52:41;;;;;;;4.70;1.00;;;24.10;56.90;;;;;;5006484;28;20033;-59
2022/07/03 08:55:08;;;;;;;4.82;0.93;;;24.10;56.80;;;;;;5007284;28;20405;-60
2022/07/03 08:57:36;;;;;;;4.63;1.33;;;24.10;56.80;;;;;;5002985;28;20046;-59
2022/07/03 09:00:07;;;;;;;7.80;1.08;;;24.10;56.80;;;;;;5003528;28;20037;-59
2022/07/03 09:02:33;;;;;;;4.20;1.13;;;24.10;56.70;;;;;;5010612;28;20046;-61
2022/07/03 09:05:01;;;;;;;2.80;0.88;;;24.10;56.70;;;;;;5007674;28;20494;-60
2022/07/03 09:07:34;;;;;;;2.78;0.93;;;24.10;56.60;;;;;;5008851;28;20041;-61
2022/07/03 09:09:59;;;;;;;1.92;0.90;;;24.10;56.70;;;;;;5008519;28;20502;-60
2022/07/03 09:12:25;;;;;;;2.83;0.98;;;24.10;56.60;;;;;;5010402;28;20121;-60
2022/07/03 09:14:51;;;;;;;4.18;0.90;;;24.10;56.60;;;;;;5011266;28;20385;-60
2022/07/03 09:17:17;;;;;;;3.78;0.88;;;24.10;56.90;;;;;;5012340;28;20048;-60
2022/07/03 09:19:48;;;;;;;8.68;1.38;;;24.10;57.10;;;;;;5008968;28;20045;-61
2022/07/03 09:22:21;;;;;;;1.85;0.85;;;24.20;57.10;;;;;;4992694;28;20054;-59
2022/07/03 09:24:51;;;;;;;3.13;0.82;;;24.20;56.90;;;;;;5010925;28;20369;-60
2022/07/03 09:27:20;;;;;;;1.92;0.88;;;24.20;56.90;;;;;;5013665;28;20605;-61
2022/07/03 09:30:04;;;;;;;4.10;0.90;;;24.20;56.80;;;;;;5009618;28;20091;-60
2022/07/03 09:32:42;;;;;;;1.50;0.70;;;24.20;56.80;;;;;;5010044;28;20085;-61
2022/07/03 09:35:22;;;;;;;1.58;0.70;;;24.20;56.70;;;;;;5010924;28;20065;-61
2022/07/03 09:37:55;;;;;;;;;;;24.20;56.70;;;;;;5009703;28;20041;-61
2022/07/03 09:40:22;;;;;;;3.75;0.95;;;24.10;56.70;;;;;;5012145;28;19924;-62
2022/07/03 09:42:58;;;;;;;3.15;0.80;;;24.20;56.80;;;;;;5011308;28;20490;-61
2022/07/03 09:45:25;;;;;;;1.98;0.80;;;24.10;56.70;;;;;;5009946;28;20057;-61
2022/07/03 09:47:51;;;;;;;3.08;0.82;;;24.10;56.60;;;;;;5008017;28;20052;-60
2022/07/03 09:50:16;;;;;;;1.10;0.57;;;24.10;56.50;;;;;;5008089;28;20045;-61
2022/07/03 09:52:47;;;;;;;5.30;1.05;;;24.20;56.40;;;;;;5010643;28;20788;-61
2022/07/03 09:55:19;;;;;;;2.78;0.80;;;24.10;56.30;;;;;;5010019;28;20573;-60
2022/07/03 09:57:51;;;;;;;2.78;1.20;;;24.20;56.30;;;;;;5010247;28;20404;-60
2022/07/03 10:00:21;;;;;;;1.25;0.82;;;24.20;56.30;;;;;;5013622;28;20072;-62
2022/07/03 10:02:53;;;;;;;2.70;1.10;;;24.20;56.30;;;;;;5012539;28;20049;-61
2022/07/03 10:05:21;;;;;;;3.63;1.15;;;24.20;56.20;;;;;;5012066;28;20299;-61
2022/07/03 10:08:18;;;;;;;5.68;0.90;;;24.20;56.20;;;;;;5011773;28;20080;-60
2022/07/03 10:10:46;;;;;;;2.42;0.90;;;24.20;56.20;;;;;;5011630;28;20179;-61
2022/07/03 10:13:13;;;;;;;2.38;1.05;;;24.20;56.30;;;;;;5008823;28;20158;-62
2022/07/03 10:15:40;;;;;;;4.20;0.80;;;24.20;56.40;;;;;;5013127;28;20054;-61
2022/07/03 10:18:07;;;;;;;2.92;1.05;;;24.20;56.50;;;;;;5009159;28;20502;-61
2022/07/03 10:20:46;;;;;;;2.40;1.05;;;24.20;56.80;;;;;;5011070;28;20069;-62
2022/07/03 10:23:12;;;;;;;6.43;0.98;;;24.20;56.80;;;;;;5011340;28;20990;-60
2022/07/03 10:25:43;;;;;;;5.55;1.10;;;24.20;56.80;;;;;;5009275;28;20045;-61
2022/07/03 10:28:12;;;;;;;4.57;1.20;;;24.20;57.00;;;;;;5007967;28;20049;-61
2022/07/03 10:30:39;;;;;;;3.72;1.00;;;24.20;56.90;;;;;;5009628;28;20056;-61
2022/07/03 10:33:05;;;;;;;3.55;0.90;;;24.20;56.30;;;;;;5010011;28;20045;-60
2022/07/03 10:35:36;;;;;;;2.88;0.93;;;24.20;56.00;;;;;;5011294;28;20037;-61
2022/07/03 10:38:01;;;;;;;1.30;0.73;;;24.20;55.60;;;;;;5007236;28;20038;-62
2022/07/03 10:46:26;;;;;;;1.80;0.88;;;24.20;55.60;;;;;;5009944;28;20398;-61
2022/07/03 10:49:07;;;;;;;3.78;1.20;;;24.20;55.60;;;;;;5008018;28;20046;-62
2022/07/03 10:51:45;;;;;;;2.72;0.77;;;24.20;55.50;;;;;;5009132;28;20037;-61
2022/07/03 10:54:27;;;;;;;1.25;0.85;;;24.20;55.30;;;;;;5011668;28;20569;-61
2022/07/03 10:56:59;;;;;;;2.40;0.60;;;24.20;55.30;;;;;;5009571;28;20045;-62
2022/07/03 10:59:37;;;;;;;2.63;0.60;;;24.20;55.20;;;;;;5010629;28;20061;-62
2022/07/03 11:02:22;;;;;;;0.82;0.80;;;24.20;55.10;;;;;;5009886;28;20033;-61
2022/07/03 11:04:57;;;;;;;0.75;0.60;;;24.20;55.10;;;;;;5007614;28;20526;-61
2022/07/03 11:07:29;;;;;;;3.30;0.88;;;24.20;55.10;;;;;;5008933;28;20124;-61
2022/07/03 11:10:10;;;;;;;1.08;0.70;;;24.20;54.00;;;;;;5008119;28;20037;-61
2022/07/03 11:13:20;;;;;;;1.77;0.40;;;24.10;52.90;;;;;;5006934;28;20085;-60
2022/07/03 11:15:49;;;;;;;1.23;0.70;;;24.10;52.40;;;;;;5009845;28;20112;-60
2022/07/03 11:18:25;;;;;;;1.35;0.70;;;24.10;51.80;;;;;;5023587;28;20083;-60
2022/07/03 11:20:51;;;;;;;2.30;0.70;;;24.10;51.40;;;;;;4988684;28;20034;-61
2022/07/03 11:23:18;;;;;;;1.23;0.60;;;24.10;51.20;;;;;;5008837;28;20463;-61
2022/07/03 11:25:48;;;;;;;1.00;0.70;;;24.00;51.10;;;;;;4996714;28;20053;-61
2022/07/03 11:28:37;;;;;;;1.63;0.50;;;24.10;50.90;;;;;;5010342;28;20053;-60
2022/07/03 11:31:13;;;;;;;0.98;0.70;;;24.10;50.90;;;;;;4998935;28;20059;-61
2022/07/03 11:33:51;;;;;;;3.75;1.40;;;24.00;50.80;;;;;;5007623;28;20072;-62
2022/07/03 11:36:16;;;;;;;12.35;3.28;;;24.00;50.70;;;;;;4990878;28;20105;-61
2022/07/03 11:39:04;;;;;;;9.80;3.70;;;24.10;51.20;;;;;;5006680;28;20139;-62
2022/07/03 11:41:33;;;;;;;14.73;4.57;;;24.10;51.50;;;;;;5009331;28;20069;-61
2022/07/03 11:44:02;;;;;;;21.23;6.53;;;24.00;51.80;;;;;;5007717;28;20042;-61
2022/07/03 11:46:34;;;;;;;20.20;6.65;;;24.00;52.20;;;;;;5008233;28;20132;-62
2022/07/03 11:49:07;;;;;;;15.38;5.20;;;24.10;52.40;;;;;;5006404;28;20072;-62
2022/07/03 11:51:34;;;;;;;13.32;4.60;;;24.10;52.60;;;;;;5010282;28;20046;-61
2022/07/03 11:54:00;;;;;;;16.02;4.60;;;24.10;52.40;;;;;;5013473;28;20148;-62
2022/07/03 11:56:27;;;;;;;10.40;4.05;;;24.10;52.60;;;;;;5006396;28;20125;-62
2022/07/03 11:58:56;;;;;;;10.60;2.95;;;24.10;52.70;;;;;;5005724;28;20030;-62
2022/07/03 12:01:21;;;;;;;9.38;2.72;;;24.10;52.70;;;;;;5008172;28;20033;-62
2022/07/03 12:03:48;;;;;;;7.63;2.67;;;24.10;52.90;;;;;;5006511;28;20049;-61
2022/07/03 12:06:13;;;;;;;15.23;5.28;;;24.10;52.90;;;;;;5007137;28;20045;-61
2022/07/03 12:08:45;;;;;;;18.02;5.70;;;24.10;53.00;;;;;;5008941;28;20124;-61
2022/07/03 12:11:16;;;;;;;21.58;7.30;;;24.10;53.30;;;;;;5007278;28;20041;-62
2022/07/03 12:13:43;;;;;;;21.55;8.85;;;24.10;53.60;;;;;;5006532;28;20045;-61
2022/07/03 12:16:13;;;;;;;18.67;6.05;;;24.10;54.00;;;;;;5010000;28;20033;-61
2022/07/03 12:18:47;;;;;;;14.88;6.15;;;24.10;53.90;;;;;;5007910;28;20037;-63
2022/07/03 12:21:14;;;;;;;16.30;5.70;;;24.10;54.20;;;;;;5007129;28;20037;-61
2022/07/03 12:23:45;;;;;;;10.40;2.28;;;24.10;54.00;;;;;;5007539;28;20195;-61
2022/07/03 12:26:11;;;;;;;10.68;3.22;;;24.10;53.70;;;;;;5005334;28;20045;-62
2022/07/03 12:28:38;;;;;;;9.80;3.20;;;24.00;53.70;;;;;;5008091;28;20124;-61
2022/07/03 12:31:04;;;;;;;8.35;3.28;;;24.10;53.90;;;;;;5007770;28;20527;-62
2022/07/03 12:33:35;;;;;;;7.35;2.95;;;24.10;54.00;;;;;;5011430;28;20042;-62
2022/07/03 12:36:08;;;;;;;8.73;2.55;;;24.10;54.10;;;;;;5009880;28;20033;-62
2022/07/03 12:38:39;;;;;;;4.38;2.15;;;24.10;54.00;;;;;;5009508;28;20073;-62
2022/07/03 12:41:09;;;;;;;4.07;2.13;;;24.10;54.00;;;;;;5015080;28;20072;-62
2022/07/03 12:43:39;;;;;;;7.20;1.93;;;24.10;54.00;;;;;;5008240;28;20041;-62
2022/07/03 12:46:26;;;;;;;3.40;1.67;;;24.10;54.20;;;;;;5007232;28;20136;-62
2022/07/03 12:48:54;;;;;;;4.07;1.50;;;24.20;54.30;;;;;;5008632;28;20042;-63
2022/07/03 12:51:49;;;;;;;3.40;1.55;;;24.20;54.30;;;;;;5012070;28;20046;-62
2022/07/03 12:54:16;;;;;;;6.30;1.80;;;24.10;54.20;;;;;;5013865;28;20069;-62
2022/07/03 12:56:44;;;;;;;3.83;1.45;;;24.20;54.20;;;;;;5009287;28;20046;-63
2022/07/03 12:59:26;;;;;;;4.55;1.38;;;24.20;54.20;;;;;;5011317;28;20033;-63
2022/07/03 13:02:01;;;;;;;4.22;1.27;;;24.20;54.10;;;;;;5009056;28;20580;-63
2022/07/03 13:04:40;;;;;;;4.38;1.20;;;24.10;54.10;;;;;;5013508;28;20405;-63
2022/07/03 13:07:07;;;;;;;3.47;1.48;;;24.10;54.10;;;;;;5006973;28;20494;-63
2022/07/03 13:09:34;;;;;;;3.13;1.33;;;24.10;54.00;;;;;;5012241;28;20374;-63
2022/07/03 13:12:00;;;;;;;2.58;1.10;;;24.20;54.10;;;;;;5010167;28;20045;-63
2022/07/03 13:14:26;;;;;;;2.45;1.55;;;24.10;54.00;;;;;;5009771;28;20517;-62